Time;durP1;ratioP1;P1;durP2;ratioP2;P2;SDS_P1;SDS_P2;PMS_P1;PMS_P2;Temp;Humidity;BMP_temperature;BMP_pressure;BME280_temperature;BME280_humidity;BME280_pressure;Samples;Min_cycle;Max_cycle;Signal;HPM_P1;HPM_P2
2022/12/10 00:01:10;;;;;;;3.25;3.03;;;10.00;89.50;;;;;;4934118;28;20237;-72
2022/12/10 00:03:36;;;;;;;6.22;2.55;;;10.00;89.70;;;;;;4947549;28;20269;-70
2022/12/10 00:06:04;;;;;;;3.22;2.30;;;10.00;89.60;;;;;;4958980;28;20198;-72
2022/12/10 00:08:30;;;;;;;4.63;2.83;;;10.10;89.70;;;;;;4956818;28;20670;-71
2022/12/10 00:10:56;;;;;;;3.42;2.63;;;10.00;89.90;;;;;;4955352;28;20193;-71
2022/12/10 00:13:23;;;;;;;6.35;2.40;;;10.00;89.60;;;;;;4955778;28;20238;-71
2022/12/10 00:15:49;;;;;;;2.58;1.98;;;10.00;89.60;;;;;;4957054;28;20218;-72
2022/12/10 00:18:15;;;;;;;7.30;2.75;;;10.00;89.70;;;;;;4950090;28;20604;-71
2022/12/10 00:20:40;;;;;;;3.17;2.88;;;10.00;89.90;;;;;;4954253;28;20244;-71
2022/12/10 00:23:06;;;;;;;2.55;2.35;;;10.00;89.60;;;;;;4952350;28;20187;-71
2022/12/10 00:25:32;;;;;;;4.93;2.90;;;9.90;89.50;;;;;;4954635;28;20187;-71
2022/12/10 00:27:58;;;;;;;3.13;2.85;;;10.00;90.00;;;;;;4956463;28;20281;-71
2022/12/10 00:30:24;;;;;;;3.60;2.80;;;9.90;90.20;;;;;;4952880;28;20187;-71
2022/12/10 00:32:50;;;;;;;4.85;3.42;;;9.90;90.00;;;;;;4951108;28;20229;-71
2022/12/10 00:35:16;;;;;;;3.42;2.67;;;;;;;;;;4949986;28;20199;-71
2022/12/10 00:37:41;;;;;;;2.92;2.72;;;9.90;90.30;;;;;;4955226;28;20282;-71
2022/12/10 00:40:08;;;;;;;3.90;2.88;;;10.00;90.30;;;;;;4952436;28;20183;-70
2022/12/10 00:42:34;;;;;;;4.18;2.75;;;9.90;90.00;;;;;;4953826;28;20183;-71
2022/12/10 00:44:59;;;;;;;10.93;2.70;;;9.90;90.20;;;;;;4956220;28;20305;-72
2022/12/10 00:47:25;;;;;;;6.15;3.17;;;9.90;90.00;;;;;;4950708;28;20248;-71
2022/12/10 00:49:51;;;;;;;3.17;2.60;;;10.00;90.30;;;;;;4957298;28;20746;-72
2022/12/10 00:52:16;;;;;;;3.33;2.53;;;10.00;90.30;;;;;;4952020;28;20183;-69
2022/12/10 00:54:42;;;;;;;10.38;2.92;;;10.00;90.10;;;;;;4957536;28;20191;-71
2022/12/10 00:57:07;;;;;;;3.42;2.72;;;10.00;90.10;;;;;;4952562;28;20292;-71
2022/12/10 00:59:33;;;;;;;6.28;3.10;;;10.00;90.00;;;;;;4951176;28;20194;-71
2022/12/10 01:01:59;;;;;;;5.97;3.33;;;10.00;90.40;;;;;;4952281;28;20183;-71
2022/12/10 01:04:24;;;;;;;3.03;2.25;;;10.00;90.10;;;;;;4951451;28;20187;-70
2022/12/10 01:06:54;;;;;;;3.25;2.45;;;10.00;90.30;;;;;;4949390;28;20273;-72
2022/12/10 01:09:24;;;;;;;4.32;2.47;;;10.00;90.50;;;;;;4956731;28;20206;-73
2022/12/10 01:11:52;;;;;;;2.75;2.33;;;10.00;90.60;;;;;;4951357;28;20309;-72
2022/12/10 01:14:24;;;;;;;5.68;2.72;;;10.00;90.60;;;;;;4946643;28;20179;-71
2022/12/10 01:16:53;;;;;;;2.13;2.03;;;10.00;90.40;;;;;;4952215;28;20206;-71
2022/12/10 01:19:19;;;;;;;4.60;2.28;;;10.00;90.70;;;;;;4952694;28;20746;-72
2022/12/10 01:21:44;;;;;;;3.60;1.92;;;10.00;90.60;;;;;;4953805;28;20320;-71
2022/12/10 01:24:10;;;;;;;4.45;2.55;;;10.10;90.60;;;;;;4953684;28;20674;-71
2022/12/10 01:26:36;;;;;;;2.47;2.28;;;10.00;90.90;;;;;;4954572;28;20801;-71
2022/12/10 01:29:04;;;;;;;3.80;2.42;;;10.00;90.50;;;;;;4952728;28;20189;-71
2022/12/10 01:31:32;;;;;;;4.53;2.55;;;10.10;90.60;;;;;;4955681;28;20182;-71
2022/12/10 01:33:58;;;;;;;7.43;2.38;;;10.10;90.60;;;;;;4952195;28;20179;-71
2022/12/10 01:36:30;;;;;;;4.13;3.00;;;10.10;90.80;;;;;;4950262;28;20206;-72
2022/12/10 01:38:56;;;;;;;3.30;2.30;;;10.10;90.80;;;;;;4955082;28;20210;-72
2022/12/10 01:41:32;;;;;;;5.20;1.88;;;10.10;90.70;;;;;;4953360;28;20187;-72
2022/12/10 01:44:00;;;;;;;4.75;1.90;;;10.10;90.60;;;;;;4949502;28;20887;-72
2022/12/10 01:46:40;;;;;;;2.72;2.25;;;10.10;90.90;;;;;;4948202;28;20258;-71
2022/12/10 01:49:14;;;;;;;2.70;2.55;;;10.20;90.80;;;;;;4949906;28;20183;-71
2022/12/10 01:51:42;;;;;;;6.97;1.98;;;10.20;90.60;;;;;;4949446;28;20190;-71
2022/12/10 01:54:11;;;;;;;2.22;1.58;;;10.20;90.60;;;;;;4950056;28;20246;-72
2022/12/10 01:56:41;;;;;;;4.57;1.92;;;10.20;90.60;;;;;;4955300;28;20663;-72
2022/12/10 01:59:08;;;;;;;2.20;2.10;;;10.20;90.40;;;;;;4954467;28;20665;-72
2022/12/10 02:01:55;;;;;;;3.00;2.00;;;10.20;90.50;;;;;;4949216;28;20238;-71
2022/12/10 02:04:20;;;;;;;5.47;2.03;;;10.20;90.40;;;;;;4950238;28;20286;-71
2022/12/10 02:06:59;;;;;;;3.05;2.22;;;10.20;90.40;;;;;;4956214;28;21913;-70
2022/12/10 02:09:59;;;;;;;2.63;2.03;;;10.30;90.20;;;;;;4952486;28;20202;-71
2022/12/10 02:12:46;;;;;;;6.32;2.30;;;10.30;90.30;;;;;;4954708;28;20186;-71
2022/12/10 02:15:20;;;;;;;2.05;1.77;;;10.40;90.20;;;;;;4932185;28;20656;-71
2022/12/10 02:18:13;;;;;;;1.48;1.38;;;10.40;90.20;;;;;;4933246;28;20221;-71
2022/12/10 02:20:46;;;;;;;1.60;1.50;;;10.50;90.10;;;;;;4949548;28;20183;-70
2022/12/10 02:23:22;;;;;;;8.65;2.10;;;10.50;90.20;;;;;;4951741;28;20182;-72
2022/12/10 02:26:02;;;;;;;8.35;2.25;;;10.50;90.10;;;;;;4951614;28;20277;-71
2022/12/10 02:28:33;;;;;;;3.00;1.88;;;10.50;90.10;;;;;;4948528;28;20294;-71
2022/12/10 02:31:01;;;;;;;4.50;1.40;;;10.50;90.00;;;;;;4950417;28;20199;-71
2022/12/10 02:33:29;;;;;;;8.90;1.45;;;10.60;90.00;;;;;;4945907;28;20191;-71
2022/12/10 02:35:57;;;;;;;1.85;1.52;;;10.60;90.20;;;;;;4949303;28;20190;-71
2022/12/10 02:38:32;;;;;;;7.30;2.08;;;10.60;90.10;;;;;;4952645;28;20253;-71
2022/12/10 02:41:04;;;;;;;3.80;2.22;;;10.60;90.00;;;;;;4947560;28;20249;-71
2022/12/10 02:43:31;;;;;;;3.50;2.00;;;10.70;90.00;;;;;;4949897;28;20735;-72
2022/12/10 02:45:59;;;;;;;2.83;1.65;;;10.60;89.90;;;;;;4951744;28;20185;-71
2022/12/10 02:48:25;;;;;;;2.75;2.20;;;10.60;90.00;;;;;;4953440;28;20191;-70
2022/12/10 02:50:51;;;;;;;3.83;1.98;;;10.70;89.90;;;;;;4949234;28;20266;-71
2022/12/10 02:53:17;;;;;;;2.10;1.92;;;10.60;89.90;;;;;;4950728;28;20262;-71
2022/12/10 02:55:57;;;;;;;1.90;1.80;;;10.60;89.80;;;;;;4946236;28;20182;-71
2022/12/10 02:58:36;;;;;;;4.43;2.25;;;10.60;89.70;;;;;;4950726;28;20691;-70
2022/12/10 03:01:07;;;;;;;7.13;1.83;;;10.70;89.60;;;;;;4949935;28;20607;-71
2022/12/10 03:03:56;;;;;;;2.38;2.15;;;10.60;89.80;;;;;;4929273;28;20194;-71
2022/12/10 03:06:36;;;;;;;2.78;2.17;;;10.70;90.20;;;;;;4954043;28;20353;-71
2022/12/10 03:09:19;;;;;;;2.30;2.17;;;10.60;90.10;;;;;;4948683;28;20175;-71
2022/12/10 03:11:48;;;;;;;3.10;2.38;;;10.60;89.90;;;;;;4948414;28;20187;-71
2022/12/10 03:14:27;;;;;;;1.88;1.67;;;10.70;90.30;;;;;;4934201;28;20202;-72
2022/12/10 03:16:58;;;;;;;6.40;1.92;;;10.70;90.10;;;;;;4949499;28;20300;-72
2022/12/10 03:19:52;;;;;;;2.33;2.22;;;10.60;90.00;;;;;;4952412;28;20581;-72
2022/12/10 03:22:20;;;;;;;6.43;2.10;;;10.60;90.10;;;;;;4942714;28;20581;-72
2022/12/10 03:24:47;;;;;;;3.40;2.17;;;10.60;90.00;;;;;;4948543;28;20268;-71
2022/12/10 03:27:15;;;;;;;2.20;2.00;;;10.60;90.30;;;;;;4947780;28;20206;-71
2022/12/10 03:29:50;;;;;;;2.72;2.05;;;10.60;90.20;;;;;;4952614;28;20205;-71
2022/12/10 03:32:17;;;;;;;2.03;1.83;;;10.60;90.00;;;;;;4949141;28;20201;-72
2022/12/10 03:34:44;;;;;;;4.63;1.73;;;10.60;90.10;;;;;;4949743;28;20195;-71
2022/12/10 03:37:12;;;;;;;1.65;1.65;;;10.70;90.00;;;;;;4953459;28;20312;-71
2022/12/10 03:39:40;;;;;;;4.18;2.15;;;10.70;90.40;;;;;;4948327;28;20229;-71
2022/12/10 03:42:06;;;;;;;1.70;1.60;;;10.70;90.00;;;;;;4953789;28;20197;-71
2022/12/10 03:44:34;;;;;;;2.65;1.52;;;10.70;90.20;;;;;;4948150;28;20285;-70
2022/12/10 03:47:02;;;;;;;1.88;1.77;;;10.80;90.20;;;;;;4948893;28;20256;-70
2022/12/10 03:49:28;;;;;;;1.38;1.27;;;10.80;90.00;;;;;;4946559;28;20680;-70
2022/12/10 03:51:53;;;;;;;4.18;2.42;;;10.80;90.20;;;;;;4948299;28;20186;-70
2022/12/10 03:54:19;;;;;;;2.97;1.42;;;10.80;90.20;;;;;;4948644;28;20197;-71
2022/12/10 03:56:45;;;;;;;2.05;1.38;;;10.80;90.20;;;;;;4950511;28;20266;-71
2022/12/10 03:59:11;;;;;;;3.67;1.35;;;10.80;90.20;;;;;;4950696;28;20304;-71
2022/12/10 04:01:37;;;;;;;3.42;1.77;;;10.80;90.20;;;;;;4951338;28;20885;-70
2022/12/10 04:04:05;;;;;;;3.80;1.73;;;10.80;90.40;;;;;;4948232;28;20190;-70
2022/12/10 04:06:31;;;;;;;1.40;1.40;;;10.80;90.20;;;;;;4950707;28;20203;-71
2022/12/10 04:08:57;;;;;;;2.15;1.10;;;10.80;90.20;;;;;;4951938;28;20577;-70
2022/12/10 04:11:23;;;;;;;1.35;1.33;;;10.80;90.20;;;;;;4948972;28;20193;-71
2022/12/10 04:16:35;;;;;;;2.05;1.92;;;10.90;90.20;;;;;;4950258;28;20228;-72
2022/12/10 04:19:07;;;;;;;2.47;2.13;;;10.90;90.50;;;;;;4949258;28;20186;-71
2022/12/10 04:27:21;;;;;;;2.25;1.42;;;11.00;90.30;;;;;;4950089;28;20356;-72
2022/12/10 04:29:47;;;;;;;3.63;1.52;;;11.00;90.30;;;;;;4948778;28;20226;-71
2022/12/10 04:32:13;;;;;;;3.85;1.95;;;11.00;90.30;;;;;;4949873;28;20689;-71
2022/12/10 04:34:38;;;;;;;1.70;1.60;;;11.10;90.40;;;;;;4947903;28;20274;-71
2022/12/10 04:37:04;;;;;;;1.70;1.60;;;11.10;90.50;;;;;;4944237;28;20226;-71
2022/12/10 04:39:30;;;;;;;1.75;1.65;;;11.20;90.50;;;;;;4949341;28;20209;-71
2022/12/10 04:41:58;;;;;;;2.72;1.85;;;11.10;90.30;;;;;;4954462;28;20245;-71
2022/12/10 04:44:24;;;;;;;1.50;1.50;;;11.20;90.60;;;;;;4953420;28;20688;-71
2022/12/10 04:46:50;;;;;;;3.00;2.08;;;11.20;90.50;;;;;;4952023;28;20191;-72
2022/12/10 04:49:16;;;;;;;4.03;1.95;;;11.10;92.20;;;;;;4952579;28;20277;-71
2022/12/10 04:51:43;;;;;;;5.95;2.30;;;11.10;91.90;;;;;;4952960;28;20269;-71
2022/12/10 04:54:09;;;;;;;3.33;1.70;;;11.10;91.80;;;;;;4953041;28;20195;-72
2022/12/10 04:56:35;;;;;;;3.97;1.48;;;11.10;92.10;;;;;;4953230;28;20210;-71
2022/12/10 04:59:01;;;;;;;2.80;1.90;;;11.00;92.10;;;;;;4935779;28;20870;-72
2022/12/10 05:01:28;;;;;;;2.20;2.03;;;11.00;91.70;;;;;;4949698;28;20183;-70
2022/12/10 05:03:53;;;;;;;1.40;1.40;;;11.00;91.70;;;;;;4948853;28;20702;-71
2022/12/10 05:06:20;;;;;;;1.88;1.67;;;11.00;91.70;;;;;;4954008;28;20209;-71
2022/12/10 05:08:45;;;;;;;1.45;1.35;;;11.00;92.10;;;;;;4938162;28;20622;-71
2022/12/10 05:11:17;;;;;;;2.42;1.25;;;11.00;92.40;;;;;;4950378;28;20189;-70
2022/12/10 05:13:43;;;;;;;3.05;1.73;;;11.00;92.50;;;;;;4950317;28;20210;-70
2022/12/10 05:16:12;;;;;;;5.68;1.85;;;11.00;92.10;;;;;;4948946;28;20186;-70
2022/12/10 05:18:38;;;;;;;2.10;1.73;;;11.10;92.70;;;;;;4957450;28;20190;-70
2022/12/10 05:21:07;;;;;;;1.98;1.65;;;11.10;92.80;;;;;;4954031;28;20185;-71
2022/12/10 05:23:35;;;;;;;2.00;1.63;;;11.00;92.80;;;;;;4950126;28;20202;-72
2022/12/10 05:26:11;;;;;;;2.30;2.10;;;10.90;92.50;;;;;;4953438;28;20238;-72
2022/12/10 05:28:46;;;;;;;2.95;1.48;;;10.90;92.40;;;;;;4956080;28;20186;-71
2022/12/10 05:31:13;;;;;;;1.95;1.83;;;10.90;92.40;;;;;;4954909;28;20185;-71
2022/12/10 05:33:39;;;;;;;2.13;1.88;;;11.00;93.10;;;;;;4950413;28;20191;-71
2022/12/10 05:36:05;;;;;;;2.67;1.42;;;11.00;93.30;;;;;;4955804;28;20187;-71
2022/12/10 05:38:33;;;;;;;1.95;1.85;;;11.00;92.60;;;;;;4946554;28;20187;-70
2022/12/10 05:41:11;;;;;;;2.03;1.92;;;11.00;92.90;;;;;;4952935;28;20568;-69
2022/12/10 05:43:37;;;;;;;1.75;1.65;;;11.00;93.20;;;;;;4951558;28;20326;-71
2022/12/10 05:46:05;;;;;;;2.45;2.13;;;11.00;93.20;;;;;;4947985;28;20270;-72
2022/12/10 05:48:32;;;;;;;5.78;1.60;;;11.00;92.80;;;;;;4951495;28;20760;-71
2022/12/10 05:50:58;;;;;;;2.15;1.98;;;11.00;92.60;;;;;;4951410;28;20192;-71
2022/12/10 05:53:24;;;;;;;1.88;1.88;;;10.90;92.50;;;;;;4950619;28;20691;-72
2022/12/10 05:55:58;;;;;;;1.70;1.60;;;11.00;93.40;;;;;;4948572;28;20198;-70
2022/12/10 05:58:24;;;;;;;3.33;1.80;;;11.00;93.30;;;;;;4954398;28;20269;-71
2022/12/10 06:00:50;;;;;;;1.90;1.80;;;11.00;92.80;;;;;;4936580;28;20193;-71
2022/12/10 06:03:15;;;;;;;4.05;1.92;;;11.00;92.80;;;;;;4948822;28;20197;-70
2022/12/10 06:05:41;;;;;;;5.55;2.47;;;11.00;93.70;;;;;;4949837;28;20198;-70
2022/12/10 06:08:07;;;;;;;3.20;1.50;;;11.00;94.60;;;;;;4950814;28;20180;-70
2022/12/10 06:10:36;;;;;;;1.60;1.52;;;10.90;94.40;;;;;;4951925;28;20577;-71
2022/12/10 06:13:03;;;;;;;2.15;1.98;;;10.90;94.20;;;;;;4951587;28;20553;-70
2022/12/10 06:15:30;;;;;;;8.65;1.98;;;10.90;94.50;;;;;;4950791;28;20186;-71
2022/12/10 06:17:56;;;;;;;2.00;1.85;;;10.90;94.50;;;;;;4956043;28;20949;-72
2022/12/10 06:20:23;;;;;;;1.67;1.58;;;10.90;94.70;;;;;;4934581;28;20210;-72
2022/12/10 06:22:49;;;;;;;2.65;1.65;;;11.00;94.50;;;;;;4955788;28;20183;-70
2022/12/10 06:25:14;;;;;;;4.07;2.17;;;10.90;94.20;;;;;;4949574;28;20205;-71
2022/12/10 06:27:40;;;;;;;2.08;1.85;;;11.00;94.80;;;;;;4955015;28;20198;-71
2022/12/10 06:30:07;;;;;;;1.77;1.65;;;11.00;94.60;;;;;;4950404;28;20298;-71
2022/12/10 06:32:32;;;;;;;1.70;1.60;;;11.00;94.10;;;;;;4953266;28;20195;-70
2022/12/10 06:34:58;;;;;;;1.73;1.63;;;11.00;94.50;;;;;;4951545;28;20198;-71
2022/12/10 06:37:24;;;;;;;3.85;1.42;;;11.10;94.80;;;;;;4955008;28;20246;-71
2022/12/10 06:39:53;;;;;;;1.60;1.50;;;11.00;94.50;;;;;;4947181;28;20186;-70
2022/12/10 06:42:21;;;;;;;5.40;1.55;;;11.00;94.20;;;;;;4954763;28;20300;-71
2022/12/10 06:44:47;;;;;;;2.40;2.25;;;11.10;94.80;;;;;;4948413;28;20193;-70
2022/12/10 06:47:13;;;;;;;1.83;1.73;;;11.00;95.10;;;;;;4949597;28;20732;-70
2022/12/10 06:49:40;;;;;;;2.33;2.00;;;11.00;95.50;;;;;;4945431;28;20183;-72
2022/12/10 06:52:06;;;;;;;4.22;2.17;;;11.00;94.90;;;;;;4947223;28;20183;-71
2022/12/10 06:54:32;;;;;;;5.25;2.20;;;11.00;94.70;;;;;;4944413;28;20704;-71
2022/12/10 06:56:58;;;;;;;2.88;1.67;;;11.00;95.00;;;;;;4952283;28;20217;-71
2022/12/10 06:59:25;;;;;;;2.08;1.98;;;11.10;95.60;;;;;;4949781;28;20240;-70
2022/12/10 07:01:50;;;;;;;6.85;1.77;;;11.20;95.20;;;;;;4947049;28;20278;-71
2022/12/10 07:04:16;;;;;;;2.03;1.75;;;11.20;95.10;;;;;;4948026;28;20266;-70
2022/12/10 07:06:42;;;;;;;2.22;2.05;;;11.20;95.10;;;;;;4952238;28;20204;-71
2022/12/10 07:09:09;;;;;;;2.40;2.30;;;11.20;95.00;;;;;;4947710;28;20179;-70
2022/12/10 07:11:36;;;;;;;2.63;2.33;;;11.30;95.00;;;;;;4948333;28;20190;-70
2022/12/10 07:14:02;;;;;;;9.15;2.67;;;11.30;94.80;;;;;;4952450;28;20190;-70
2022/12/10 07:16:30;;;;;;;5.18;2.03;;;11.40;95.30;;;;;;4945569;28;20298;-70
2022/12/10 07:18:58;;;;;;;2.50;2.08;;;11.40;94.90;;;;;;4943863;28;20943;-71
2022/12/10 07:21:26;;;;;;;3.13;2.33;;;11.40;94.40;;;;;;4944536;28;20282;-69
2022/12/10 07:23:54;;;;;;;2.22;2.13;;;11.40;94.20;;;;;;4950093;28;20286;-70
2022/12/10 07:26:21;;;;;;;2.30;2.15;;;11.50;94.10;;;;;;4930034;28;20192;-69
2022/12/10 07:28:47;;;;;;;2.13;1.77;;;11.50;94.40;;;;;;4950274;28;20192;-71
2022/12/10 07:31:12;;;;;;;2.80;2.38;;;11.60;94.50;;;;;;4950524;28;20187;-69
2022/12/10 07:33:38;;;;;;;6.75;1.95;;;11.60;94.30;;;;;;4953172;28;20770;-71
2022/12/10 07:36:10;;;;;;;4.03;2.25;;;11.60;94.00;;;;;;4951511;28;20182;-70
2022/12/10 07:38:36;;;;;;;2.47;2.28;;;11.70;93.80;;;;;;4948278;28;20187;-73
2022/12/10 07:41:04;;;;;;;2.85;2.65;;;11.70;93.80;;;;;;4950676;28;20191;-72
2022/12/10 07:43:30;;;;;;;3.50;2.45;;;11.80;94.20;;;;;;4949863;28;20335;-73
2022/12/10 07:45:55;;;;;;;2.35;2.13;;;11.80;93.90;;;;;;4951650;28;20213;-73
2022/12/10 07:48:21;;;;;;;2.85;2.22;;;11.90;94.30;;;;;;4954043;28;20199;-73
2022/12/10 07:50:54;;;;;;;2.35;2.25;;;12.00;94.00;;;;;;4949342;28;20282;-73
2022/12/10 07:53:20;;;;;;;3.50;2.20;;;11.90;93.70;;;;;;4952383;28;20178;-73
2022/12/10 07:55:46;;;;;;;2.88;2.65;;;11.90;93.60;;;;;;4951383;28;20193;-72
2022/12/10 07:58:11;;;;;;;2.50;2.15;;;11.90;93.60;;;;;;4954338;28;20230;-72
2022/12/10 08:00:37;;;;;;;2.80;2.63;;;11.90;93.60;;;;;;4947997;28;20206;-72
2022/12/10 08:03:03;;;;;;;2.78;2.65;;;12.00;93.70;;;;;;4950895;28;20183;-72
2022/12/10 08:05:28;;;;;;;6.30;2.58;;;12.00;93.80;;;;;;4951436;28;20198;-74
2022/12/10 08:07:54;;;;;;;2.95;2.75;;;12.10;94.10;;;;;;4947728;28;20768;-72
2022/12/10 08:10:20;;;;;;;5.10;2.55;;;12.10;93.50;;;;;;4942617;28;20183;-72
2022/12/10 08:12:45;;;;;;;5.72;3.03;;;12.20;93.40;;;;;;4953955;28;20190;-73
2022/12/10 08:15:11;;;;;;;4.03;2.22;;;12.20;93.40;;;;;;4958182;28;20175;-71
2022/12/10 08:17:37;;;;;;;4.68;2.45;;;12.30;93.40;;;;;;4953772;28;20221;-72
2022/12/10 08:20:03;;;;;;;7.50;3.08;;;12.40;93.30;;;;;;4952731;28;20186;-71
2022/12/10 08:22:28;;;;;;;2.60;2.40;;;12.50;93.30;;;;;;4956078;28;20221;-71
2022/12/10 08:24:54;;;;;;;2.85;2.40;;;12.50;93.20;;;;;;4953621;28;20187;-72
2022/12/10 08:27:20;;;;;;;2.47;2.17;;;12.60;93.40;;;;;;4954506;28;20194;-72
2022/12/10 08:29:45;;;;;;;3.55;2.97;;;12.70;93.10;;;;;;4938950;28;20195;-72
2022/12/10 08:32:11;;;;;;;3.15;2.95;;;12.80;93.40;;;;;;4955334;28;20260;-72
2022/12/10 08:34:37;;;;;;;4.55;2.78;;;12.90;92.70;;;;;;4951636;28;20206;-72
2022/12/10 08:37:04;;;;;;;6.53;3.08;;;12.90;92.80;;;;;;4956979;28;20686;-72
2022/12/10 08:39:29;;;;;;;2.50;2.40;;;13.00;92.70;;;;;;4952289;28;20664;-72
2022/12/10 08:41:55;;;;;;;3.95;3.65;;;13.00;93.00;;;;;;4955148;28;20218;-72
2022/12/10 08:44:20;;;;;;;3.80;2.78;;;13.10;92.90;;;;;;4937623;28;20183;-73
2022/12/10 08:46:46;;;;;;;3.15;3.00;;;13.20;92.60;;;;;;4954883;28;20190;-72
2022/12/10 08:49:12;;;;;;;4.15;3.85;;;;;;;;;;4953212;28;20194;-72
2022/12/10 08:51:39;;;;;;;7.53;3.85;;;13.30;92.20;;;;;;4953482;28;20182;-72
2022/12/10 08:54:04;;;;;;;6.65;4.15;;;13.30;92.60;;;;;;4958327;28;20187;-72
2022/12/10 08:56:30;;;;;;;5.60;3.50;;;13.40;92.30;;;;;;4956194;28;20232;-73
2022/12/10 08:58:56;;;;;;;5.32;3.67;;;13.50;92.60;;;;;;4955349;28;20619;-70
2022/12/10 09:01:22;;;;;;;6.10;3.10;;;13.60;92.40;;;;;;4955736;28;20193;-70
2022/12/10 09:03:48;;;;;;;4.40;3.88;;;13.70;92.50;;;;;;4952806;28;20294;-69
2022/12/10 09:06:16;;;;;;;4.20;3.75;;;13.80;92.30;;;;;;4957350;28;20202;-70
2022/12/10 09:08:42;;;;;;;4.50;3.70;;;13.90;92.00;;;;;;4954942;28;20183;-70
2022/12/10 09:11:32;;;;;;;3.80;3.58;;;13.90;91.90;;;;;;4951982;28;20253;-72
2022/12/10 09:13:58;;;;;;;9.55;4.35;;;14.00;91.50;;;;;;4935990;28;20209;-73
2022/12/10 09:16:32;;;;;;;5.22;3.70;;;14.10;91.30;;;;;;4951924;28;20265;-71
2022/12/10 09:18:59;;;;;;;12.30;4.18;;;14.30;91.60;;;;;;4949897;28;20237;-71
2022/12/10 09:21:24;;;;;;;7.03;4.68;;;14.50;92.20;;;;;;4954009;28;20187;-72
2022/12/10 09:23:51;;;;;;;4.68;3.75;;;14.80;92.00;;;;;;4950740;28;20179;-71
2022/12/10 09:26:18;;;;;;;8.88;3.88;;;15.00;91.70;;;;;;4949455;28;20171;-72
2022/12/10 09:28:45;;;;;;;4.82;4.05;;;15.30;90.20;;;;;;4952029;28;20193;-71
2022/12/10 09:31:12;;;;;;;5.05;3.42;;;15.40;89.80;;;;;;4950239;28;20242;-71
2022/12/10 09:33:39;;;;;;;4.38;3.97;;;15.50;89.40;;;;;;4944811;28;20180;-72
2022/12/10 09:36:06;;;;;;;3.63;3.33;;;15.60;89.30;;;;;;4953972;28;20190;-71
2022/12/10 09:38:35;;;;;;;4.35;3.95;;;15.70;88.90;;;;;;4955146;28;20191;-71
2022/12/10 09:41:13;;;;;;;4.82;3.78;;;15.80;88.20;;;;;;4954984;28;20179;-72
2022/12/10 09:43:52;;;;;;;4.90;3.70;;;16.10;88.90;;;;;;4952464;28;20591;-72
2022/12/10 09:46:33;;;;;;;5.78;3.80;;;16.50;88.60;;;;;;4947254;28;20183;-71
2022/12/10 09:49:21;;;;;;;6.05;3.83;;;17.20;85.50;;;;;;4945268;28;20267;-70
2022/12/10 09:51:47;;;;;;;5.45;4.20;;;17.20;85.40;;;;;;4947150;28;20194;-72
2022/12/10 09:54:24;;;;;;;7.28;3.75;;;17.60;85.90;;;;;;4947483;28;20584;-71
2022/12/10 09:56:51;;;;;;;5.30;3.75;;;18.10;85.10;;;;;;4949403;28;20222;-70
2022/12/10 09:59:34;;;;;;;5.78;3.70;;;18.60;83.60;;;;;;4950133;28;20217;-70
2022/12/10 10:02:18;;;;;;;8.18;4.43;;;19.00;80.50;;;;;;4952169;28;20191;-71
2022/12/10 10:04:44;;;;;;;4.38;3.95;;;19.30;80.20;;;;;;4951170;28;20573;-71
2022/12/10 10:07:31;;;;;;;5.20;3.78;;;19.70;80.70;;;;;;4947955;28;20191;-72
2022/12/10 10:10:01;;;;;;;4.20;3.83;;;20.20;79.80;;;;;;4948111;28;20175;-71
2022/12/10 10:12:29;;;;;;;4.90;4.50;;;20.70;78.10;;;;;;4949667;28;20198;-72
2022/12/10 10:14:54;;;;;;;7.05;4.38;;;21.20;75.90;;;;;;4949433;28;20669;-71
2022/12/10 10:17:31;;;;;;;4.68;4.00;;;21.70;75.80;;;;;;4946921;28;20221;-71
2022/12/10 10:19:57;;;;;;;4.30;4.00;;;22.10;75.40;;;;;;4944907;28;20182;-73
2022/12/10 10:22:23;;;;;;;3.75;3.55;;;22.30;73.50;;;;;;4945439;28;20205;-72
2022/12/10 10:24:48;;;;;;;4.70;4.10;;;22.50;72.70;;;;;;4951136;28;20190;-73
2022/12/10 10:27:21;;;;;;;5.93;3.63;;;22.60;73.20;;;;;;4950400;28;20251;-71
2022/12/10 10:29:51;;;;;;;5.82;4.68;;;22.70;73.10;;;;;;4949137;28;20237;-73
2022/12/10 10:32:25;;;;;;;3.88;3.45;;;22.80;70.50;;;;;;4949461;28;20270;-74
2022/12/10 10:34:58;;;;;;;5.60;3.75;;;22.90;72.80;;;;;;4947344;28;20257;-72
2022/12/10 10:37:33;;;;;;;5.20;4.25;;;23.10;72.20;;;;;;4952705;28;20622;-70
2022/12/10 10:39:59;;;;;;;5.25;4.00;;;23.20;71.30;;;;;;4945534;28;20249;-69
2022/12/10 10:42:39;;;;;;;4.53;4.25;;;23.30;71.10;;;;;;4948766;28;20191;-72
2022/12/10 10:45:30;;;;;;;4.65;3.95;;;23.50;70.80;;;;;;4947909;28;20695;-70
2022/12/10 10:48:17;;;;;;;4.45;4.05;;;23.40;67.80;;;;;;4884190;29;20219;-73
2022/12/10 10:50:55;;;;;;;5.97;4.57;;;23.30;68.80;;;;;;4888635;29;20313;-69
2022/12/10 10:53:22;;;;;;;4.78;3.97;;;23.10;70.30;;;;;;4886294;29;20201;-71
2022/12/10 10:55:47;;;;;;;3.97;3.60;;;22.90;70.80;;;;;;4884711;29;20197;-70
2022/12/10 10:58:21;;;;;;;5.90;3.40;;;22.80;70.50;;;;;;4881463;29;20229;-69
2022/12/10 11:01:00;;;;;;;3.95;3.58;;;22.90;72.20;;;;;;4884601;29;20228;-70
2022/12/10 11:03:28;;;;;;;5.25;3.75;;;23.00;71.20;;;;;;4883505;29;20241;-69
2022/12/10 11:05:56;;;;;;;3.95;3.63;;;23.00;70.40;;;;;;4883338;29;20300;-70
2022/12/10 11:08:25;;;;;;;4.20;3.90;;;22.80;69.90;;;;;;4883528;29;20806;-70
2022/12/10 11:10:55;;;;;;;3.63;3.42;;;22.70;70.80;;;;;;4883133;29;20200;-70
2022/12/10 11:13:27;;;;;;;4.05;3.70;;;22.70;71.20;;;;;;4881877;29;20602;-70
2022/12/10 11:15:57;;;;;;;6.35;3.60;;;22.70;71.10;;;;;;4883177;29;20215;-70
2022/12/10 11:18:31;;;;;;;4.18;3.88;;;22.70;71.00;;;;;;4880216;29;20251;-69
2022/12/10 11:21:14;;;;;;;4.25;3.95;;;22.70;70.00;;;;;;4880315;29;20193;-70
2022/12/10 11:23:43;;;;;;;5.03;4.45;;;22.60;71.10;;;;;;4880634;29;20200;-70
2022/12/10 11:27:03;;;;;;;5.07;3.95;;;22.40;69.70;;;;;;4941877;28;20195;-70
2022/12/10 11:29:43;;;;;;;3.33;3.08;;;22.40;72.00;;;;;;4855386;29;20187;-70
2022/12/10 11:32:21;;;;;;;4.55;3.00;;;22.30;71.50;;;;;;4854674;29;20206;-70
2022/12/10 11:35:24;;;;;;;3.25;2.78;;;22.30;70.80;;;;;;4857108;29;20202;-71
2022/12/10 11:38:10;;;;;;;4.65;3.00;;;22.30;70.50;;;;;;4792095;29;20262;-70
2022/12/10 11:40:48;;;;;;;8.20;3.35;;;22.10;71.20;;;;;;4798730;29;20196;-72
2022/12/10 11:43:22;;;;;;;3.65;3.20;;;22.00;71.20;;;;;;4797992;29;20211;-70
2022/12/10 11:46:10;;;;;;;8.20;2.97;;;21.90;71.80;;;;;;4793498;29;20204;-70
2022/12/10 11:48:53;;;;;;;2.38;2.17;;;21.90;71.50;;;;;;4790851;29;20759;-71
2022/12/10 11:51:42;;;;;;;3.65;2.50;;;21.80;70.90;;;;;;4794694;29;20196;-70
2022/12/10 11:54:45;;;;;;;4.88;2.88;;;21.90;72.40;;;;;;4790534;29;20252;-70
2022/12/10 11:57:23;;;;;;;4.95;2.78;;;21.70;70.40;;;;;;4795948;29;20234;-69
2022/12/10 12:00:03;;;;;;;5.70;3.13;;;21.60;70.10;;;;;;4799781;29;20206;-70
2022/12/10 12:02:56;;;;;;;3.10;2.92;;;21.40;71.40;;;;;;4802371;29;20370;-70
2022/12/10 12:05:40;;;;;;;4.75;2.30;;;21.20;70.70;;;;;;4886361;29;20230;-69
2022/12/10 12:08:40;;;;;;;4.80;3.30;;;21.00;71.20;;;;;;4888807;29;20233;-69
2022/12/10 12:11:28;;;;;;;3.45;2.85;;;20.80;71.90;;;;;;4829385;29;20203;-69
2022/12/10 12:14:24;;;;;;;4.30;3.58;;;20.60;71.60;;;;;;4837550;29;20630;-69
2022/12/10 12:17:02;;;;;;;3.33;3.13;;;20.40;72.70;;;;;;4853476;29;20234;-69
2022/12/10 12:19:58;;;;;;;2.80;2.70;;;20.20;73.50;;;;;;4854906;29;20186;-69
2022/12/10 12:22:27;;;;;;;3.47;2.88;;;20.00;73.00;;;;;;4849478;29;20225;-69
2022/12/10 12:25:06;;;;;;;4.10;3.10;;;20.00;73.80;;;;;;4849828;29;20198;-69
2022/12/10 12:27:48;;;;;;;3.45;3.15;;;19.80;72.80;;;;;;4846159;29;20190;-69
2022/12/10 12:30:18;;;;;;;3.88;2.80;;;19.50;74.10;;;;;;4851885;29;20763;-69
2022/12/10 12:32:50;;;;;;;3.28;2.67;;;19.30;73.40;;;;;;4848683;29;20245;-70
2022/12/10 12:35:42;;;;;;;4.03;3.13;;;18.90;74.50;;;;;;4852532;29;20186;-69
2022/12/10 12:38:25;;;;;;;4.30;2.95;;;18.70;75.40;;;;;;4854326;29;20227;-69
2022/12/10 12:41:01;;;;;;;4.47;2.80;;;18.40;76.30;;;;;;4845489;29;20203;-69
2022/12/10 12:44:02;;;;;;;3.47;2.97;;;18.40;76.60;;;;;;4852251;29;20341;-68
2022/12/10 12:46:39;;;;;;;2.63;2.47;;;18.20;76.60;;;;;;4852866;29;20200;-69
2022/12/10 12:49:35;;;;;;;4.55;3.00;;;18.10;76.80;;;;;;4893218;29;20187;-69
2022/12/10 12:52:14;;;;;;;3.67;3.20;;;18.00;77.00;;;;;;4878913;29;20193;-69
2022/12/10 12:54:40;;;;;;;2.97;2.75;;;18.00;76.80;;;;;;4886375;29;20197;-69
2022/12/10 12:57:22;;;;;;;3.78;2.78;;;17.80;77.30;;;;;;4889154;29;20260;-68
2022/12/10 13:00:10;;;;;;;6.65;3.42;;;17.60;77.30;;;;;;4890577;29;20268;-69
2022/12/10 13:02:58;;;;;;;3.45;3.17;;;17.50;78.00;;;;;;4890106;29;20579;-68
2022/12/10 13:05:31;;;;;;;2.33;2.22;;;17.40;77.80;;;;;;4888537;29;20193;-69
2022/12/10 13:08:28;;;;;;;6.35;3.55;;;17.30;78.30;;;;;;4895183;29;20595;-69
2022/12/10 13:11:10;;;;;;;5.18;2.90;;;17.10;78.30;;;;;;4886846;29;20209;-69
2022/12/10 13:13:57;;;;;;;4.03;2.65;;;17.10;78.80;;;;;;4886751;29;20264;-69
2022/12/10 13:16:40;;;;;;;5.63;2.60;;;16.90;78.70;;;;;;4887556;29;20260;-69